sensor_id;sensor_type;location;lat;lon;timestamp;P1;durP1;ratioP1;P2;durP2;ratioP2
19879;SDS011;10102;50.828;4.416;2023-02-28T07:04:02;18.27;;;9.60;;
19879;SDS011;10102;50.828;4.416;2023-02-28T07:06:33;21.05;;;9.30;;
19879;SDS011;10102;50.828;4.416;2023-02-28T07:09:00;16.60;;;9.00;;
19879;SDS011;10102;50.828;4.416;2023-02-28T07:11:27;18.73;;;9.68;;
19879;SDS011;10102;50.828;4.416;2023-02-28T07:13:53;16.08;;;9.27;;
19879;SDS011;10102;50.828;4.416;2023-02-28T07:16:20;12.80;;;8.57;;
19879;SDS011;10102;50.828;4.416;2023-02-28T07:18:47;18.88;;;9.45;;
19879;SDS011;10102;50.828;4.416;2023-02-28T07:21:12;12.50;;;9.15;;
19879;SDS011;10102;50.828;4.416;2023-02-28T07:23:38;17.83;;;9.40;;
19879;SDS011;10102;50.828;4.416;2023-02-28T07:29:28;18.77;;;9.57;;
19879;SDS011;10102;50.828;4.416;2023-02-28T07:31:54;13.20;;;9.07;;
19879;SDS011;10102;50.828;4.416;2023-02-28T07:34:20;12.40;;;9.13;;
19879;SDS011;10102;50.828;4.416;2023-02-28T07:36:46;15.25;;;10.00;;
19879;SDS011;10102;50.828;4.416;2023-02-28T07:39:11;17.08;;;9.40;;
19879;SDS011;10102;50.828;4.416;2023-02-28T07:41:37;26.40;;;9.30;;
19879;SDS011;10102;50.828;4.416;2023-02-28T07:44:08;14.73;;;9.02;;
19879;SDS011;10102;50.828;4.416;2023-02-28T07:46:35;13.77;;;8.68;;
19879;SDS011;10102;50.828;4.416;2023-02-28T07:49:07;14.05;;;8.23;;
19879;SDS011;10102;50.828;4.416;2023-02-28T07:51:35;11.23;;;8.38;;
19879;SDS011;10102;50.828;4.416;2023-02-28T07:54:00;11.18;;;7.70;;
19879;SDS011;10102;50.828;4.416;2023-02-28T07:56:27;13.07;;;8.38;;
19879;SDS011;10102;50.828;4.416;2023-02-28T07:58:53;13.48;;;8.25;;
19879;SDS011;10102;50.828;4.416;2023-02-28T08:01:18;13.00;;;7.80;;
19879;SDS011;10102;50.828;4.416;2023-02-28T08:03:44;10.48;;;6.97;;
19879;SDS011;10102;50.828;4.416;2023-02-28T08:06:15;10.30;;;7.38;;
19879;SDS011;10102;50.828;4.416;2023-02-28T08:08:43;9.80;;;7.13;;
19879;SDS011;10102;50.828;4.416;2023-02-28T08:11:09;12.45;;;6.90;;
19879;SDS011;10102;50.828;4.416;2023-02-28T08:13:35;14.70;;;6.63;;
19879;SDS011;10102;50.828;4.416;2023-02-28T08:16:01;9.68;;;6.60;;
19879;SDS011;10102;50.828;4.416;2023-02-28T08:18:27;11.50;;;7.43;;
19879;SDS011;10102;50.828;4.416;2023-02-28T08:20:53;10.25;;;6.60;;
19879;SDS011;10102;50.828;4.416;2023-02-28T08:23:19;17.23;;;7.18;;
19879;SDS011;10102;50.828;4.416;2023-02-28T08:25:52;11.50;;;6.82;;
19879;SDS011;10102;50.828;4.416;2023-02-28T08:28:18;9.73;;;6.57;;
19879;SDS011;10102;50.828;4.416;2023-02-28T08:30:44;11.70;;;7.15;;
19879;SDS011;10102;50.828;4.416;2023-02-28T08:33:10;11.10;;;6.93;;
19879;SDS011;10102;50.828;4.416;2023-02-28T08:35:36;10.25;;;6.40;;
19879;SDS011;10102;50.828;4.416;2023-02-28T08:38:02;8.55;;;6.30;;
19879;SDS011;10102;50.828;4.416;2023-02-28T08:40:28;9.82;;;5.68;;
19879;SDS011;10102;50.828;4.416;2023-02-28T08:42:53;12.07;;;6.82;;
19879;SDS011;10102;50.828;4.416;2023-02-28T08:45:19;8.05;;;6.60;;
19879;SDS011;10102;50.828;4.416;2023-02-28T08:47:45;10.63;;;5.90;;
19879;SDS011;10102;50.828;4.416;2023-02-28T08:50:11;10.07;;;6.30;;
19879;SDS011;10102;50.828;4.416;2023-02-28T08:52:41;11.77;;;5.85;;
19879;SDS011;10102;50.828;4.416;2023-02-28T08:55:08;9.27;;;6.03;;
19879;SDS011;10102;50.828;4.416;2023-02-28T08:57:35;8.45;;;5.97;;
19879;SDS011;10102;50.828;4.416;2023-02-28T09:00:01;10.65;;;6.45;;
19879;SDS011;10102;50.828;4.416;2023-02-28T09:02:29;8.70;;;6.07;;
19879;SDS011;10102;50.828;4.416;2023-02-28T09:04:56;9.43;;;6.07;;
19879;SDS011;10102;50.828;4.416;2023-02-28T09:07:22;14.52;;;6.50;;
19879;SDS011;10102;50.828;4.416;2023-02-28T09:09:47;6.75;;;5.45;;
19879;SDS011;10102;50.828;4.416;2023-02-28T09:12:20;7.43;;;4.97;;
19879;SDS011;10102;50.828;4.416;2023-02-28T09:14:46;9.82;;;6.20;;
19879;SDS011;10102;50.828;4.416;2023-02-28T09:17:12;10.82;;;6.13;;
19879;SDS011;10102;50.828;4.416;2023-02-28T09:19:38;7.40;;;5.03;;
19879;SDS011;10102;50.828;4.416;2023-02-28T09:22:03;8.20;;;5.05;;
19879;SDS011;10102;50.828;4.416;2023-02-28T09:24:29;7.47;;;4.70;;
19879;SDS011;10102;50.828;4.416;2023-02-28T09:26:56;6.78;;;4.63;;
19879;SDS011;10102;50.828;4.416;2023-02-28T09:29:22;8.73;;;5.03;;
19879;SDS011;10102;50.828;4.416;2023-02-28T09:31:47;7.05;;;4.88;;
19879;SDS011;10102;50.828;4.416;2023-02-28T09:34:13;5.22;;;4.32;;
19879;SDS011;10102;50.828;4.416;2023-02-28T09:36:39;7.15;;;4.43;;
19879;SDS011;10102;50.828;4.416;2023-02-28T09:39:05;6.28;;;4.30;;
19879;SDS011;10102;50.828;4.416;2023-02-28T09:41:36;8.13;;;4.25;;
19879;SDS011;10102;50.828;4.416;2023-02-28T09:44:15;5.60;;;4.35;;
19879;SDS011;10102;50.828;4.416;2023-02-28T09:49:55;11.05;;;4.55;;
19879;SDS011;10102;50.828;4.416;2023-02-28T09:52:32;7.97;;;3.90;;
19879;SDS011;10102;50.828;4.416;2023-02-28T09:55:01;6.47;;;4.47;;
19879;SDS011;10102;50.828;4.416;2023-02-28T09:57:40;6.63;;;4.00;;
19879;SDS011;10102;50.828;4.416;2023-02-28T10:00:14;5.43;;;3.97;;
19879;SDS011;10102;50.828;4.416;2023-02-28T10:06:22;12.07;;;3.72;;
19879;SDS011;10102;50.828;4.416;2023-02-28T10:08:57;6.10;;;3.60;;
19879;SDS011;10102;50.828;4.416;2023-02-28T10:11:32;6.05;;;3.60;;
19879;SDS011;10102;50.828;4.416;2023-02-28T10:14:14;5.10;;;3.40;;
19879;SDS011;10102;50.828;4.416;2023-02-28T10:16:53;4.72;;;3.72;;
19879;SDS011;10102;50.828;4.416;2023-02-28T10:21:57;4.22;;;3.28;;
19879;SDS011;10102;50.828;4.416;2023-02-28T10:24:45;4.80;;;3.10;;
19879;SDS011;10102;50.828;4.416;2023-02-28T10:27:23;5.00;;;3.60;;
19879;SDS011;10102;50.828;4.416;2023-02-28T10:29:51;9.57;;;3.75;;
19879;SDS011;10102;50.828;4.416;2023-02-28T10:32:19;3.47;;;3.17;;
19879;SDS011;10102;50.828;4.416;2023-02-28T10:35:00;4.03;;;2.60;;
19879;SDS011;10102;50.828;4.416;2023-02-28T10:37:27;9.52;;;2.55;;
19879;SDS011;10102;50.828;4.416;2023-02-28T10:39:52;5.88;;;2.70;;
19879;SDS011;10102;50.828;4.416;2023-02-28T10:42:20;4.10;;;3.10;;
19879;SDS011;10102;50.828;4.416;2023-02-28T10:58:50;4.20;;;2.72;;
19879;SDS011;10102;50.828;4.416;2023-02-28T11:01:21;3.60;;;2.40;;
19879;SDS011;10102;50.828;4.416;2023-02-28T11:04:01;2.72;;;2.28;;
19879;SDS011;10102;50.828;4.416;2023-02-28T11:06:30;4.45;;;2.88;;
19879;SDS011;10102;50.828;4.416;2023-02-28T11:09:02;3.50;;;2.67;;
19879;SDS011;10102;50.828;4.416;2023-02-28T11:11:40;3.15;;;2.40;;
19879;SDS011;10102;50.828;4.416;2023-02-28T11:20:05;8.27;;;2.58;;
19879;SDS011;10102;50.828;4.416;2023-02-28T11:22:35;4.57;;;2.50;;
19879;SDS011;10102;50.828;4.416;2023-02-28T11:25:16;4.07;;;2.30;;
19879;SDS011;10102;50.828;4.416;2023-02-28T11:27:49;3.28;;;2.30;;
19879;SDS011;10102;50.828;4.416;2023-02-28T11:30:26;4.63;;;2.13;;
19879;SDS011;10102;50.828;4.416;2023-02-28T11:32:52;2.55;;;2.35;;
19879;SDS011;10102;50.828;4.416;2023-02-28T11:35:21;4.88;;;2.38;;
19879;SDS011;10102;50.828;4.416;2023-02-28T11:38:04;5.22;;;2.67;;
19879;SDS011;10102;50.828;4.416;2023-02-28T11:40:56;3.38;;;2.47;;
19879;SDS011;10102;50.828;4.416;2023-02-28T11:43:27;4.75;;;2.67;;
19879;SDS011;10102;50.828;4.416;2023-02-28T11:51:26;3.03;;;2.72;;
19879;SDS011;10102;50.828;4.416;2023-02-28T11:53:59;3.83;;;3.30;;
19879;SDS011;10102;50.828;4.416;2023-02-28T11:56:52;3.55;;;3.05;;
19879;SDS011;10102;50.828;4.416;2023-02-28T12:00:07;4.90;;;2.50;;
19879;SDS011;10102;50.828;4.416;2023-02-28T12:02:23;3.38;;;2.53;;
19879;SDS011;10102;50.828;4.416;2023-02-28T12:10:35;3.10;;;2.65;;
19879;SDS011;10102;50.828;4.416;2023-02-28T12:13:25;3.35;;;2.50;;
19879;SDS011;10102;50.828;4.416;2023-02-28T12:22:00;3.03;;;2.15;;
19879;SDS011;10102;50.828;4.416;2023-02-28T12:27:40;3.20;;;2.58;;
19879;SDS011;10102;50.828;4.416;2023-02-28T12:30:26;3.72;;;2.50;;
19879;SDS011;10102;50.828;4.416;2023-02-28T12:32:56;3.58;;;2.40;;
19879;SDS011;10102;50.828;4.416;2023-02-28T12:38:22;3.75;;;2.17;;
19879;SDS011;10102;50.828;4.416;2023-02-28T12:41:05;3.05;;;2.10;;
19879;SDS011;10102;50.828;4.416;2023-02-28T12:43:43;5.20;;;2.22;;
19879;SDS011;10102;50.828;4.416;2023-02-28T12:46:15;2.60;;;2.33;;
19879;SDS011;10102;50.828;4.416;2023-02-28T12:48:46;3.88;;;2.28;;
19879;SDS011;10102;50.828;4.416;2023-02-28T12:51:16;2.70;;;2.20;;
19879;SDS011;10102;50.828;4.416;2023-02-28T13:02:01;3.67;;;2.20;;
19879;SDS011;10102;50.828;4.416;2023-02-28T13:09:56;5.03;;;2.65;;
19879;SDS011;10102;50.828;4.416;2023-02-28T13:12:24;4.82;;;2.47;;
19879;SDS011;10102;50.828;4.416;2023-02-28T13:15:00;5.38;;;2.47;;
19879;SDS011;10102;50.828;4.416;2023-02-28T13:17:30;2.72;;;2.20;;
19879;SDS011;10102;50.828;4.416;2023-02-28T13:19:59;2.85;;;2.55;;
19879;SDS011;10102;50.828;4.416;2023-02-28T13:24:54;2.58;;;2.33;;
19879;SDS011;10102;50.828;4.416;2023-02-28T13:27:23;3.13;;;2.35;;
19879;SDS011;10102;50.828;4.416;2023-02-28T13:35:45;7.80;;;2.88;;
19879;SDS011;10102;50.828;4.416;2023-02-28T13:38:15;10.95;;;2.85;;
19879;SDS011;10102;50.828;4.416;2023-02-28T13:40:42;4.03;;;2.83;;
19879;SDS011;10102;50.828;4.416;2023-02-28T13:43:08;3.03;;;2.67;;
19879;SDS011;10102;50.828;4.416;2023-02-28T13:45:34;3.85;;;2.88;;
19879;SDS011;10102;50.828;4.416;2023-02-28T13:48:04;3.28;;;2.90;;
19879;SDS011;10102;50.828;4.416;2023-02-28T13:50:44;3.05;;;2.53;;
19879;SDS011;10102;50.828;4.416;2023-02-28T14:04:43;3.92;;;3.53;;
19879;SDS011;10102;50.828;4.416;2023-02-28T14:07:23;4.70;;;2.60;;
19879;SDS011;10102;50.828;4.416;2023-02-28T14:09:56;9.18;;;3.13;;
19879;SDS011;10102;50.828;4.416;2023-02-28T14:37:29;5.57;;;3.50;;
19879;SDS011;10102;50.828;4.416;2023-02-28T14:39:58;6.35;;;3.20;;
19879;SDS011;10102;50.828;4.416;2023-02-28T14:42:35;3.88;;;3.47;;
19879;SDS011;10102;50.828;4.416;2023-02-28T14:45:19;4.97;;;3.47;;
19879;SDS011;10102;50.828;4.416;2023-02-28T14:47:45;8.57;;;3.38;;
19879;SDS011;10102;50.828;4.416;2023-02-28T14:50:30;9.43;;;2.83;;
19879;SDS011;10102;50.828;4.416;2023-02-28T14:52:57;4.18;;;3.35;;
19879;SDS011;10102;50.828;4.416;2023-02-28T14:55:26;4.95;;;3.63;;
19879;SDS011;10102;50.828;4.416;2023-02-28T14:58:05;4.57;;;3.50;;
19879;SDS011;10102;50.828;4.416;2023-02-28T15:00:35;3.58;;;3.22;;
19879;SDS011;10102;50.828;4.416;2023-02-28T15:03:22;6.00;;;3.60;;
19879;SDS011;10102;50.828;4.416;2023-02-28T15:05:56;5.43;;;3.20;;
19879;SDS011;10102;50.828;4.416;2023-02-28T15:08:24;5.55;;;3.88;;
19879;SDS011;10102;50.828;4.416;2023-02-28T15:13:21;3.22;;;2.92;;
19879;SDS011;10102;50.828;4.416;2023-02-28T15:21:06;5.30;;;4.20;;
19879;SDS011;10102;50.828;4.416;2023-02-28T15:23:36;5.45;;;3.35;;
19879;SDS011;10102;50.828;4.416;2023-02-28T15:26:02;6.05;;;4.43;;
19879;SDS011;10102;50.828;4.416;2023-02-28T15:28:29;7.57;;;3.63;;
19879;SDS011;10102;50.828;4.416;2023-02-28T15:30:56;4.30;;;3.90;;
19879;SDS011;10102;50.828;4.416;2023-02-28T15:33:28;6.80;;;3.80;;
19879;SDS011;10102;50.828;4.416;2023-02-28T15:36:05;5.00;;;3.90;;
19879;SDS011;10102;50.828;4.416;2023-02-28T15:38:33;5.07;;;3.75;;
19879;SDS011;10102;50.828;4.416;2023-02-28T15:41:00;4.68;;;4.03;;
19879;SDS011;10102;50.828;4.416;2023-02-28T15:43:27;7.88;;;3.90;;
19879;SDS011;10102;50.828;4.416;2023-02-28T15:48:34;7.97;;;5.05;;
19879;SDS011;10102;50.828;4.416;2023-02-28T15:51:17;6.78;;;4.20;;
19879;SDS011;10102;50.828;4.416;2023-02-28T15:58:46;5.93;;;4.03;;
19879;SDS011;10102;50.828;4.416;2023-02-28T16:01:17;4.63;;;4.05;;
19879;SDS011;10102;50.828;4.416;2023-02-28T16:03:45;5.53;;;3.92;;
19879;SDS011;10102;50.828;4.416;2023-02-28T16:08:41;6.80;;;3.25;;
19879;SDS011;10102;50.828;4.416;2023-02-28T16:11:10;5.07;;;3.33;;
19879;SDS011;10102;50.828;4.416;2023-02-28T16:13:36;5.47;;;3.75;;
19879;SDS011;10102;50.828;4.416;2023-02-28T16:16:02;3.70;;;3.22;;
19879;SDS011;10102;50.828;4.416;2023-02-28T16:18:28;6.45;;;4.25;;
19879;SDS011;10102;50.828;4.416;2023-02-28T16:20:54;5.85;;;3.22;;
19879;SDS011;10102;50.828;4.416;2023-02-28T16:23:20;5.60;;;3.85;;
19879;SDS011;10102;50.828;4.416;2023-02-28T16:25:45;4.57;;;4.13;;
19879;SDS011;10102;50.828;4.416;2023-02-28T16:28:23;4.40;;;3.65;;
19879;SDS011;10102;50.828;4.416;2023-02-28T16:30:57;4.20;;;3.50;;
19879;SDS011;10102;50.828;4.416;2023-02-28T16:33:25;5.05;;;3.88;;
19879;SDS011;10102;50.828;4.416;2023-02-28T16:35:51;6.03;;;4.18;;
19879;SDS011;10102;50.828;4.416;2023-02-28T16:38:17;6.22;;;4.10;;
19879;SDS011;10102;50.828;4.416;2023-02-28T16:40:42;5.25;;;4.03;;
19879;SDS011;10102;50.828;4.416;2023-02-28T16:43:16;8.20;;;4.78;;
19879;SDS011;10102;50.828;4.416;2023-02-28T16:45:47;5.82;;;4.13;;
19879;SDS011;10102;50.828;4.416;2023-02-28T16:48:13;4.82;;;3.53;;
19879;SDS011;10102;50.828;4.416;2023-02-28T16:50:41;6.20;;;3.58;;
19879;SDS011;10102;50.828;4.416;2023-02-28T16:53:09;5.95;;;4.18;;
19879;SDS011;10102;50.828;4.416;2023-02-28T16:55:35;9.32;;;4.53;;
19879;SDS011;10102;50.828;4.416;2023-02-28T16:58:02;8.69;;;4.19;;
19879;SDS011;10102;50.828;4.416;2023-02-28T17:00:30;7.65;;;4.00;;
19879;SDS011;10102;50.828;4.416;2023-02-28T17:02:57;5.78;;;4.00;;
19879;SDS011;10102;50.828;4.416;2023-02-28T17:05:24;9.63;;;4.25;;
19879;SDS011;10102;50.828;4.416;2023-02-28T17:07:52;6.70;;;3.65;;
19879;SDS011;10102;50.828;4.416;2023-02-28T17:10:19;5.93;;;4.00;;
19879;SDS011;10102;50.828;4.416;2023-02-28T17:12:46;8.95;;;5.18;;
19879;SDS011;10102;50.828;4.416;2023-02-28T17:15:13;6.35;;;4.28;;
19879;SDS011;10102;50.828;4.416;2023-02-28T17:17:40;5.70;;;3.90;;
19879;SDS011;10102;50.828;4.416;2023-02-28T17:20:09;4.82;;;3.60;;
19879;SDS011;10102;50.828;4.416;2023-02-28T17:22:40;4.82;;;3.55;;
19879;SDS011;10102;50.828;4.416;2023-02-28T17:25:07;5.72;;;4.00;;
19879;SDS011;10102;50.828;4.416;2023-02-28T17:27:34;4.38;;;3.60;;
19879;SDS011;10102;50.828;4.416;2023-02-28T17:30:00;5.72;;;3.80;;
19879;SDS011;10102;50.828;4.416;2023-02-28T17:32:26;6.97;;;3.70;;
19879;SDS011;10102;50.828;4.416;2023-02-28T17:34:52;8.48;;;3.65;;
19879;SDS011;10102;50.828;4.416;2023-02-28T17:37:19;5.60;;;3.85;;
19879;SDS011;10102;50.828;4.416;2023-02-28T17:39:45;5.43;;;4.10;;
19879;SDS011;10102;50.828;4.416;2023-02-28T17:42:11;5.78;;;4.47;;
19879;SDS011;10102;50.828;4.416;2023-02-28T17:44:37;5.72;;;4.00;;
19879;SDS011;10102;50.828;4.416;2023-02-28T17:47:02;8.55;;;3.90;;
19879;SDS011;10102;50.828;4.416;2023-02-28T17:49:28;6.43;;;4.45;;
19879;SDS011;10102;50.828;4.416;2023-02-28T17:51:54;8.20;;;4.47;;
19879;SDS011;10102;50.828;4.416;2023-02-28T17:54:20;5.68;;;4.18;;
19879;SDS011;10102;50.828;4.416;2023-02-28T17:56:45;11.00;;;4.70;;
19879;SDS011;10102;50.828;4.416;2023-02-28T17:59:11;7.00;;;4.13;;
19879;SDS011;10102;50.828;4.416;2023-02-28T18:01:37;8.05;;;4.68;;
19879;SDS011;10102;50.828;4.416;2023-02-28T18:04:03;8.30;;;4.75;;
19879;SDS011;10102;50.828;4.416;2023-02-28T18:09:00;6.45;;;4.15;;
19879;SDS011;10102;50.828;4.416;2023-02-28T18:11:26;5.38;;;3.97;;
19879;SDS011;10102;50.828;4.416;2023-02-28T18:14:07;5.55;;;3.97;;
19879;SDS011;10102;50.828;4.416;2023-02-28T18:16:32;6.05;;;4.25;;
19879;SDS011;10102;50.828;4.416;2023-02-28T18:18:59;5.97;;;4.22;;
19879;SDS011;10102;50.828;4.416;2023-02-28T18:21:27;7.38;;;4.40;;
19879;SDS011;10102;50.828;4.416;2023-02-28T18:23:53;12.05;;;5.10;;
19879;SDS011;10102;50.828;4.416;2023-02-28T18:26:19;6.65;;;4.30;;
19879;SDS011;10102;50.828;4.416;2023-02-28T18:28:45;6.55;;;5.30;;
19879;SDS011;10102;50.828;4.416;2023-02-28T18:31:13;8.43;;;4.47;;
19879;SDS011;10102;50.828;4.416;2023-02-28T18:33:43;7.13;;;5.28;;
19879;SDS011;10102;50.828;4.416;2023-02-28T18:36:11;9.40;;;5.60;;
19879;SDS011;10102;50.828;4.416;2023-02-28T18:38:37;8.38;;;5.45;;
19879;SDS011;10102;50.828;4.416;2023-02-28T18:41:04;8.30;;;6.00;;
19879;SDS011;10102;50.828;4.416;2023-02-28T18:43:32;9.27;;;5.93;;
19879;SDS011;10102;50.828;4.416;2023-02-28T18:46:09;10.40;;;5.75;;
19879;SDS011;10102;50.828;4.416;2023-02-28T18:48:36;17.65;;;6.28;;
19879;SDS011;10102;50.828;4.416;2023-02-28T18:51:06;12.45;;;6.15;;
19879;SDS011;10102;50.828;4.416;2023-02-28T18:53:33;11.05;;;6.50;;
19879;SDS011;10102;50.828;4.416;2023-02-28T18:56:03;13.05;;;6.45;;
19879;SDS011;10102;50.828;4.416;2023-02-28T18:58:30;9.45;;;6.57;;
19879;SDS011;10102;50.828;4.416;2023-02-28T19:00:57;11.27;;;6.97;;
19879;SDS011;10102;50.828;4.416;2023-02-28T19:03:24;11.98;;;6.78;;
19879;SDS011;10102;50.828;4.416;2023-02-28T19:05:56;10.68;;;6.80;;
19879;SDS011;10102;50.828;4.416;2023-02-28T19:08:24;10.23;;;6.43;;
19879;SDS011;10102;50.828;4.416;2023-02-28T19:10:50;11.27;;;6.85;;
19879;SDS011;10102;50.828;4.416;2023-02-28T19:13:16;10.63;;;6.60;;
19879;SDS011;10102;50.828;4.416;2023-02-28T19:15:42;12.75;;;7.32;;
19879;SDS011;10102;50.828;4.416;2023-02-28T19:18:08;12.50;;;6.63;;
19879;SDS011;10102;50.828;4.416;2023-02-28T19:20:33;10.93;;;6.30;;
19879;SDS011;10102;50.828;4.416;2023-02-28T19:23:00;9.77;;;6.57;;
19879;SDS011;10102;50.828;4.416;2023-02-28T19:25:26;11.18;;;7.10;;
19879;SDS011;10102;50.828;4.416;2023-02-28T19:27:52;13.27;;;7.38;;
19879;SDS011;10102;50.828;4.416;2023-02-28T19:30:19;15.82;;;7.25;;
19879;SDS011;10102;50.828;4.416;2023-02-28T19:32:45;15.20;;;8.00;;
19879;SDS011;10102;50.828;4.416;2023-02-28T19:35:12;15.95;;;7.65;;
19879;SDS011;10102;50.828;4.416;2023-02-28T19:37:38;13.02;;;7.05;;
19879;SDS011;10102;50.828;4.416;2023-02-28T19:40:08;12.68;;;8.00;;
19879;SDS011;10102;50.828;4.416;2023-02-28T19:42:35;11.30;;;7.60;;
19879;SDS011;10102;50.828;4.416;2023-02-28T19:45:01;9.90;;;6.93;;
19879;SDS011;10102;50.828;4.416;2023-02-28T19:47:27;14.93;;;8.32;;
19879;SDS011;10102;50.828;4.416;2023-02-28T19:49:55;10.88;;;6.55;;
19879;SDS011;10102;50.828;4.416;2023-02-28T19:52:21;10.63;;;7.00;;
19879;SDS011;10102;50.828;4.416;2023-02-28T19:54:48;10.80;;;6.47;;
19879;SDS011;10102;50.828;4.416;2023-02-28T19:57:14;11.48;;;7.10;;
19879;SDS011;10102;50.828;4.416;2023-02-28T19:59:40;10.10;;;6.75;;
19879;SDS011;10102;50.828;4.416;2023-02-28T20:02:08;8.50;;;6.70;;
19879;SDS011;10102;50.828;4.416;2023-02-28T20:04:38;9.93;;;6.68;;
19879;SDS011;10102;50.828;4.416;2023-02-28T20:07:03;16.23;;;7.53;;
19879;SDS011;10102;50.828;4.416;2023-02-28T20:09:29;11.80;;;7.60;;
19879;SDS011;10102;50.828;4.416;2023-02-28T20:11:56;10.88;;;7.20;;
19879;SDS011;10102;50.828;4.416;2023-02-28T20:14:23;10.15;;;6.90;;
19879;SDS011;10102;50.828;4.416;2023-02-28T20:16:49;11.93;;;7.40;;
19879;SDS011;10102;50.828;4.416;2023-02-28T20:19:15;11.85;;;7.57;;
19879;SDS011;10102;50.828;4.416;2023-02-28T20:21:42;13.73;;;7.82;;
19879;SDS011;10102;50.828;4.416;2023-02-28T20:24:09;17.23;;;7.72;;
19879;SDS011;10102;50.828;4.416;2023-02-28T20:26:35;15.13;;;8.65;;
19879;SDS011;10102;50.828;4.416;2023-02-28T20:29:02;12.38;;;8.25;;
19879;SDS011;10102;50.828;4.416;2023-02-28T20:31:28;13.35;;;8.15;;
19879;SDS011;10102;50.828;4.416;2023-02-28T20:33:55;13.27;;;8.15;;
19879;SDS011;10102;50.828;4.416;2023-02-28T20:36:21;14.27;;;8.55;;
19879;SDS011;10102;50.828;4.416;2023-02-28T20:38:48;14.68;;;8.80;;
19879;SDS011;10102;50.828;4.416;2023-02-28T20:41:15;16.85;;;9.27;;
19879;SDS011;10102;50.828;4.416;2023-02-28T20:43:40;14.35;;;8.45;;
19879;SDS011;10102;50.828;4.416;2023-02-28T20:46:07;13.73;;;8.85;;
19879;SDS011;10102;50.828;4.416;2023-02-28T20:48:33;13.05;;;8.07;;
19879;SDS011;10102;50.828;4.416;2023-02-28T20:51:02;14.55;;;8.82;;
19879;SDS011;10102;50.828;4.416;2023-02-28T20:53:29;14.07;;;8.77;;
19879;SDS011;10102;50.828;4.416;2023-02-28T20:55:57;10.20;;;7.85;;
19879;SDS011;10102;50.828;4.416;2023-02-28T20:58:27;13.57;;;8.85;;
19879;SDS011;10102;50.828;4.416;2023-02-28T21:01:03;15.55;;;8.45;;
19879;SDS011;10102;50.828;4.416;2023-02-28T21:03:47;17.27;;;8.45;;
19879;SDS011;10102;50.828;4.416;2023-02-28T21:06:17;16.52;;;9.07;;
19879;SDS011;10102;50.828;4.416;2023-02-28T21:08:44;13.13;;;8.35;;
19879;SDS011;10102;50.828;4.416;2023-02-28T21:11:11;13.25;;;8.60;;
19879;SDS011;10102;50.828;4.416;2023-02-28T21:13:39;12.88;;;9.25;;
19879;SDS011;10102;50.828;4.416;2023-02-28T21:16:07;15.00;;;9.30;;
19879;SDS011;10102;50.828;4.416;2023-02-28T21:18:35;13.15;;;9.50;;
19879;SDS011;10102;50.828;4.416;2023-02-28T21:21:05;17.25;;;9.90;;
19879;SDS011;10102;50.828;4.416;2023-02-28T21:23:32;12.52;;;8.55;;
19879;SDS011;10102;50.828;4.416;2023-02-28T21:26:05;14.30;;;9.70;;
19879;SDS011;10102;50.828;4.416;2023-02-28T21:28:32;15.05;;;9.85;;
19879;SDS011;10102;50.828;4.416;2023-02-28T21:31:05;14.07;;;8.32;;
19879;SDS011;10102;50.828;4.416;2023-02-28T21:33:33;15.40;;;8.88;;
19879;SDS011;10102;50.828;4.416;2023-02-28T21:36:09;14.35;;;9.55;;
19879;SDS011;10102;50.828;4.416;2023-02-28T21:38:42;14.98;;;9.50;;
19879;SDS011;10102;50.828;4.416;2023-02-28T21:41:13;15.65;;;10.05;;
19879;SDS011;10102;50.828;4.416;2023-02-28T21:43:41;15.13;;;10.40;;
19879;SDS011;10102;50.828;4.416;2023-02-28T21:46:08;17.33;;;9.95;;
19879;SDS011;10102;50.828;4.416;2023-02-28T21:48:36;16.80;;;9.95;;
19879;SDS011;10102;50.828;4.416;2023-02-28T21:51:03;24.95;;;10.35;;
19879;SDS011;10102;50.828;4.416;2023-02-28T21:53:31;17.92;;;10.50;;
19879;SDS011;10102;50.828;4.416;2023-02-28T21:56:01;15.90;;;9.68;;
19879;SDS011;10102;50.828;4.416;2023-02-28T21:58:38;13.27;;;9.32;;
19879;SDS011;10102;50.828;4.416;2023-02-28T22:01:08;12.40;;;9.80;;
19879;SDS011;10102;50.828;4.416;2023-02-28T22:03:36;18.88;;;10.65;;
19879;SDS011;10102;50.828;4.416;2023-02-28T22:06:21;14.65;;;9.70;;
19879;SDS011;10102;50.828;4.416;2023-02-28T22:08:51;17.05;;;10.15;;
19879;SDS011;10102;50.828;4.416;2023-02-28T22:11:18;21.60;;;9.93;;
19879;SDS011;10102;50.828;4.416;2023-02-28T22:13:45;18.27;;;9.23;;
19879;SDS011;10102;50.828;4.416;2023-02-28T22:16:13;18.17;;;9.88;;
19879;SDS011;10102;50.828;4.416;2023-02-28T22:18:40;16.67;;;9.63;;
19879;SDS011;10102;50.828;4.416;2023-02-28T22:21:06;12.52;;;8.45;;
19879;SDS011;10102;50.828;4.416;2023-02-28T22:23:33;14.73;;;9.63;;
19879;SDS011;10102;50.828;4.416;2023-02-28T22:26:00;15.15;;;9.93;;
19879;SDS011;10102;50.828;4.416;2023-02-28T22:28:27;14.48;;;9.10;;
19879;SDS011;10102;50.828;4.416;2023-02-28T22:30:54;17.63;;;10.38;;
19879;SDS011;10102;50.828;4.416;2023-02-28T22:33:21;15.43;;;9.30;;
19879;SDS011;10102;50.828;4.416;2023-02-28T22:35:47;14.88;;;9.30;;
19879;SDS011;10102;50.828;4.416;2023-02-28T22:38:13;17.23;;;9.98;;
19879;SDS011;10102;50.828;4.416;2023-02-28T22:40:39;14.88;;;10.13;;
19879;SDS011;10102;50.828;4.416;2023-02-28T22:43:05;16.63;;;9.93;;
19879;SDS011;10102;50.828;4.416;2023-02-28T22:45:34;12.48;;;8.93;;
19879;SDS011;10102;50.828;4.416;2023-02-28T22:48:01;13.85;;;9.18;;
19879;SDS011;10102;50.828;4.416;2023-02-28T22:50:31;13.48;;;9.20;;
19879;SDS011;10102;50.828;4.416;2023-02-28T22:52:57;13.30;;;9.63;;
19879;SDS011;10102;50.828;4.416;2023-02-28T22:55:23;14.43;;;8.65;;
19879;SDS011;10102;50.828;4.416;2023-02-28T22:57:49;14.68;;;8.60;;
19879;SDS011;10102;50.828;4.416;2023-02-28T23:00:14;12.20;;;8.50;;
19879;SDS011;10102;50.828;4.416;2023-02-28T23:02:43;12.02;;;8.52;;
19879;SDS011;10102;50.828;4.416;2023-02-28T23:05:11;14.43;;;9.02;;
19879;SDS011;10102;50.828;4.416;2023-02-28T23:07:37;12.13;;;8.68;;
19879;SDS011;10102;50.828;4.416;2023-02-28T23:10:05;12.90;;;8.30;;
19879;SDS011;10102;50.828;4.416;2023-02-28T23:12:32;13.77;;;8.75;;
19879;SDS011;10102;50.828;4.416;2023-02-28T23:14:58;11.93;;;7.88;;
19879;SDS011;10102;50.828;4.416;2023-02-28T23:17:24;17.27;;;8.65;;
19879;SDS011;10102;50.828;4.416;2023-02-28T23:19:50;11.35;;;8.60;;
19879;SDS011;10102;50.828;4.416;2023-02-28T23:22:15;12.00;;;8.50;;
19879;SDS011;10102;50.828;4.416;2023-02-28T23:24:41;14.00;;;9.10;;
19879;SDS011;10102;50.828;4.416;2023-02-28T23:27:07;12.73;;;7.82;;
19879;SDS011;10102;50.828;4.416;2023-02-28T23:29:33;13.80;;;8.70;;
19879;SDS011;10102;50.828;4.416;2023-02-28T23:31:59;15.93;;;9.05;;
19879;SDS011;10102;50.828;4.416;2023-02-28T23:34:25;11.88;;;8.40;;
19879;SDS011;10102;50.828;4.416;2023-02-28T23:36:52;12.23;;;8.90;;
19879;SDS011;10102;50.828;4.416;2023-02-28T23:39:19;14.40;;;9.27;;
19879;SDS011;10102;50.828;4.416;2023-02-28T23:41:45;15.07;;;9.05;;
19879;SDS011;10102;50.828;4.416;2023-02-28T23:44:11;13.25;;;9.60;;
19879;SDS011;10102;50.828;4.416;2023-02-28T23:46:41;15.23;;;10.07;;
19879;SDS011;10102;50.828;4.416;2023-02-28T23:49:08;12.38;;;8.73;;
19879;SDS011;10102;50.828;4.416;2023-02-28T23:51:34;14.80;;;9.32;;
19879;SDS011;10102;50.828;4.416;2023-02-28T23:54:00;12.38;;;9.02;;
19879;SDS011;10102;50.828;4.416;2023-02-28T23:56:29;14.77;;;9.25;;
19879;SDS011;10102;50.828;4.416;2023-02-28T23:58:55;20.88;;;9.80;;
